Time;durP1;ratioP1;P1;durP2;ratioP2;P2;SDS_P1;SDS_P2;PMS_P1;PMS_P2;Temp;Humidity;BMP_temperature;BMP_pressure;BME280_temperature;BME280_humidity;BME280_pressure;Samples;Min_cycle;Max_cycle;Signal;HPM_P1;HPM_P2
2024/01/11 00:00:28;;;;;;;38.23;26.50;;;;;20.20;101965.00;;;;2115937;23;20209;-50
2024/01/11 00:01:29;;;;;;;39.50;26.70;;;;;20.20;101973.00;;;;2074735;28;20263;-50
2024/01/11 00:02:29;;;;;;;42.50;27.43;;;;;20.20;101974.00;;;;2059370;28;20231;-50
2024/01/11 00:03:29;;;;;;;36.73;26.70;;;;;20.20;101928.00;;;;2079533;28;20241;-50
2024/01/11 00:04:30;;;;;;;38.60;24.87;;;;;20.20;101986.00;;;;2084729;28;20729;-50
2024/01/11 00:05:30;;;;;;;39.87;26.30;;;;;20.20;101980.00;;;;2085964;28;20221;-50
2024/01/11 00:06:30;;;;;;;39.10;26.17;;;;;20.20;101976.00;;;;2084951;28;20232;-50
2024/01/11 00:07:31;;;;;;;35.60;25.00;;;;;20.20;101980.00;;;;2070489;28;20265;-50
2024/01/11 00:08:31;;;;;;;37.00;25.70;;;;;20.20;101979.00;;;;2083424;28;20232;-50
2024/01/11 00:09:31;;;;;;;33.70;25.30;;;;;20.20;101981.00;;;;2084890;28;20252;-49
2024/01/11 00:10:31;;;;;;;38.23;26.30;;;;;20.20;101978.00;;;;2085657;28;20216;-50
2024/01/11 00:11:32;;;;;;;36.73;24.53;;;;;20.20;101974.00;;;;2083898;28;20229;-50
2024/01/11 00:12:32;;;;;;;36.17;25.37;;;;;20.20;101980.00;;;;2073884;28;20266;-50
2024/01/11 00:13:33;;;;;;;32.53;23.57;;;;;20.20;101981.00;;;;2085242;28;20324;-50
2024/01/11 00:14:33;;;;;;;35.47;24.60;;;;;20.20;101986.00;;;;2085026;28;20255;-50
2024/01/11 00:15:33;;;;;;;34.10;24.80;;;;;20.20;101984.00;;;;2085819;28;20221;-50
2024/01/11 00:16:34;;;;;;;35.50;25.70;;;;;20.20;101976.00;;;;2085143;28;20672;-50
2024/01/11 00:17:34;;;;;;;32.93;22.97;;;;;20.20;101974.00;;;;2075068;28;20221;-50
2024/01/11 00:18:34;;;;;;;35.70;23.30;;;;;20.20;101977.00;;;;2085185;28;20271;-50
2024/01/11 00:19:35;;;;;;;31.93;23.70;;;;;20.20;101974.00;;;;2084096;28;20228;-49
2024/01/11 00:20:35;;;;;;;34.03;23.83;;;;;20.10;101975.00;;;;2085839;28;20231;-50
2024/01/11 00:21:36;;;;;;;34.90;25.10;;;;;20.10;101973.00;;;;2085039;28;20217;-50
2024/01/11 00:22:36;;;;;;;33.47;23.03;;;;;20.10;101971.00;;;;2072510;28;20243;-50
2024/01/11 00:23:37;;;;;;;32.43;22.13;;;;;19.10;101975.00;;;;2084263;28;20240;-50
2024/01/11 00:24:37;;;;;;;31.87;22.97;;;;;20.10;101979.00;;;;2085629;28;20389;-50
2024/01/11 00:25:37;;;;;;;32.77;23.53;;;;;20.10;101974.00;;;;2084857;28;20224;-50
2024/01/11 00:26:38;;;;;;;31.10;21.80;;;;;20.10;101980.00;;;;2085339;28;20225;-50
2024/01/11 00:27:38;;;;;;;31.67;22.90;;;;;20.10;101975.00;;;;2075864;28;20260;-50
2024/01/11 00:28:38;;;;;;;30.23;22.53;;;;;20.10;101975.00;;;;2083434;28;20226;-50
2024/01/11 00:29:39;;;;;;;33.63;23.37;;;;;20.10;101976.00;;;;2085712;28;21174;-50
2024/01/11 00:30:39;;;;;;;30.47;22.30;;;;;19.00;101976.00;;;;2084789;28;20304;-49
2024/01/11 00:31:39;;;;;;;30.00;22.30;;;;;20.10;101979.00;;;;2084140;28;20272;-50
2024/01/11 00:32:40;;;;;;;30.23;22.10;;;;;20.10;101969.00;;;;2071926;28;20236;-50
2024/01/11 00:33:40;;;;;;;31.70;22.77;;;;;20.10;101968.00;;;;2085481;28;20252;-50
2024/01/11 00:34:40;;;;;;;29.63;21.90;;;;;20.10;101970.00;;;;2085610;28;20305;-50
2024/01/11 00:35:41;;;;;;;31.70;22.13;;;;;20.10;101965.00;;;;2085039;28;20248;-49
2024/01/11 00:36:41;;;;;;;30.43;24.07;;;;;20.10;101960.00;;;;2085410;28;20317;-50
2024/01/11 00:37:41;;;;;;;29.23;20.37;;;;;20.10;101956.00;;;;2074274;28;20239;-50
2024/01/11 00:38:42;;;;;;;26.77;20.03;;;;;20.10;101955.00;;;;2085513;28;20221;-50
2024/01/11 00:39:42;;;;;;;29.70;21.57;;;;;20.00;101958.00;;;;2084683;28;20275;-50
2024/01/11 00:40:42;;;;;;;30.70;21.43;;;;;20.00;101954.00;;;;2085612;28;20224;-50
2024/01/11 00:41:43;;;;;;;26.43;21.20;;;;;20.00;101958.00;;;;2085565;28;20269;-49
2024/01/11 00:42:43;;;;;;;27.77;19.57;;;;;20.00;101954.00;;;;2073513;28;20229;-49
2024/01/11 00:43:43;;;;;;;28.37;20.60;;;;;20.00;101952.00;;;;2085671;28;20228;-50
2024/01/11 00:44:45;;;;;;;28.00;21.50;;;;;20.00;101960.00;;;;2081249;28;20300;-50
2024/01/11 00:45:45;;;;;;;28.85;21.20;;;;;20.00;101955.00;;;;2077937;28;20228;-50
2024/01/11 00:46:46;;;;;;;26.20;19.93;;;;;20.00;101961.00;;;;2084878;28;25018;-50
2024/01/11 00:47:46;;;;;;;28.37;20.07;;;;;20.00;101975.00;;;;2075613;28;20292;-50
2024/01/11 00:48:46;;;;;;;31.77;21.70;;;;;20.00;101951.00;;;;2084927;28;20221;-50
2024/01/11 00:49:47;;;;;;;28.40;19.43;;;;;20.00;101960.00;;;;2084926;28;20224;-49
2024/01/11 00:50:47;;;;;;;25.73;19.00;;;;;20.00;101970.00;;;;2085355;28;20274;-50
2024/01/11 00:51:47;;;;;;;27.37;19.67;;;;;20.00;101951.00;;;;2084493;28;20586;-50
2024/01/11 00:52:48;;;;;;;27.90;20.97;;;;;20.00;101954.00;;;;2074117;28;21034;-50
2024/01/11 00:53:48;;;;;;;27.43;18.80;;;;;20.00;101959.00;;;;2084376;28;21047;-50
2024/01/11 00:54:48;;;;;;;26.17;19.30;;;;;20.00;101961.00;;;;2085312;28;20225;-50
2024/01/11 00:55:49;;;;;;;26.37;18.17;;;;;20.00;101960.00;;;;2083372;28;20209;-50
2024/01/11 00:56:49;;;;;;;28.77;19.93;;;;;20.00;101949.00;;;;2084720;28;20377;-50
2024/01/11 00:57:50;;;;;;;25.40;18.30;;;;;20.00;101955.00;;;;2075593;28;20215;-50
2024/01/11 00:58:50;;;;;;;25.03;17.80;;;;;20.00;101955.00;;;;2084210;28;20217;-49
2024/01/11 00:59:51;;;;;;;26.77;18.47;;;;;19.50;101962.00;;;;2085331;28;20505;-50
2024/01/11 01:00:52;;;;;;;24.70;18.00;;;;;19.90;101959.00;;;;2084975;28;20213;-50
2024/01/11 01:01:53;;;;;;;24.33;18.80;;;;;19.90;102001.00;;;;2088378;28;20715;-50
2024/01/11 01:02:53;;;;;;;22.63;17.57;;;;;19.90;101962.00;;;;2075139;28;20220;-50
2024/01/11 01:03:54;;;;;;;26.70;18.73;;;;;20.00;101958.00;;;;2084614;28;20721;-50
2024/01/11 01:04:54;;;;;;;21.70;16.10;;;;;19.90;101958.00;;;;2084733;28;20859;-49
2024/01/11 01:05:54;;;;;;;26.13;18.20;;;;;19.90;101964.00;;;;2085378;28;20212;-50
2024/01/11 01:06:55;;;;;;;22.00;16.97;;;;;19.90;101960.00;;;;2085273;28;20217;-50
2024/01/11 01:07:55;;;;;;;26.73;19.70;;;;;19.90;101963.00;;;;2075372;28;20217;-50
2024/01/11 01:08:56;;;;;;;24.80;18.37;;;;;19.90;101961.00;;;;2085092;28;20216;-50
2024/01/11 01:09:56;;;;;;;22.87;16.70;;;;;19.90;101972.00;;;;2084508;28;20243;-50
2024/01/11 01:10:56;;;;;;;22.33;17.20;;;;;19.90;101951.00;;;;2083430;28;20216;-50
2024/01/11 01:11:57;;;;;;;24.03;17.83;;;;;19.90;101966.00;;;;2082336;28;20212;-49
2024/01/11 01:12:59;;;;;;;22.10;16.70;;;;;19.90;101956.00;;;;2075356;28;20245;-50
2024/01/11 01:13:59;;;;;;;23.73;16.55;;;;;19.90;101955.00;;;;2084441;28;21173;-50
2024/01/11 01:15:00;;;;;;;25.70;17.30;;;;;19.90;101954.00;;;;2080554;28;20246;-50
2024/01/11 01:16:00;;;;;;;25.00;16.83;;;;;19.90;101965.00;;;;2085203;28;20236;-50
2024/01/11 01:17:00;;;;;;;22.07;16.63;;;;;19.90;101961.00;;;;2084792;28;20213;-50
2024/01/11 01:18:01;;;;;;;24.27;17.13;;;;;19.90;101966.00;;;;2073157;28;20217;-50
2024/01/11 01:19:01;;;;;;;22.73;17.10;;;;;19.90;101968.00;;;;2080347;28;20243;-51
2024/01/11 01:20:03;;;;;;;21.50;15.43;;;;;19.90;101965.00;;;;2085465;28;20271;-50
2024/01/11 01:21:06;;;;;;;22.42;16.15;;;;;19.80;101958.00;;;;2084465;28;20213;-50
2024/01/11 01:22:07;;;;;;;21.92;16.98;;;;;19.90;101966.00;;;;2083850;28;20304;-50
2024/01/11 01:23:07;;;;;;;22.10;16.77;;;;;19.90;101965.00;;;;2074775;28;20251;-50
2024/01/11 01:24:07;;;;;;;20.90;16.33;;;;;19.90;101965.00;;;;2084618;28;20321;-50
2024/01/11 01:25:08;;;;;;;23.27;16.10;;;;;19.80;101965.00;;;;2084819;28;20213;-50
2024/01/11 01:26:08;;;;;;;22.93;15.93;;;;;19.90;101963.00;;;;2084486;28;20209;-50
2024/01/11 01:27:08;;;;;;;21.10;16.13;;;;;19.80;101965.00;;;;2085610;28;20239;-50
2024/01/11 01:28:09;;;;;;;21.17;16.70;;;;;19.90;101968.00;;;;2074800;28;20241;-50
2024/01/11 01:29:09;;;;;;;22.73;17.03;;;;;19.80;101969.00;;;;2085302;28;20247;-50
2024/01/11 01:30:09;;;;;;;22.43;17.13;;;;;19.40;101973.00;;;;2082396;28;20217;-50
2024/01/11 01:31:10;;;;;;;22.73;15.40;;;;;19.80;101973.00;;;;2084956;28;20292;-50
2024/01/11 01:32:10;;;;;;;19.73;14.73;;;;;19.80;101973.00;;;;2077039;28;20201;-51
2024/01/11 01:33:11;;;;;;;22.30;16.37;;;;;19.80;101976.00;;;;2083520;28;20295;-50
2024/01/11 01:34:11;;;;;;;20.87;16.20;;;;;19.80;101973.00;;;;2085211;28;20236;-50
2024/01/11 01:35:11;;;;;;;20.93;15.90;;;;;19.80;101979.00;;;;2083339;28;20700;-50
2024/01/11 01:36:12;;;;;;;23.50;16.47;;;;;19.80;101977.00;;;;2085642;28;20211;-50
2024/01/11 01:37:12;;;;;;;21.67;16.23;;;;;19.80;101980.00;;;;2074702;28;20204;-50
2024/01/11 01:38:12;;;;;;;21.13;16.13;;;;;19.80;101974.00;;;;2085092;28;20208;-50
2024/01/11 01:39:13;;;;;;;22.20;16.40;;;;;19.30;101980.00;;;;2084938;28;20295;-50
2024/01/11 01:40:13;;;;;;;21.77;15.40;;;;;19.80;101982.00;;;;2084414;28;20214;-50
2024/01/11 01:41:13;;;;;;;19.63;14.87;;;;;19.80;101979.00;;;;2084998;28;20746;-50
2024/01/11 01:42:14;;;;;;;20.03;14.83;;;;;19.80;101979.00;;;;2073564;28;20211;-50
2024/01/11 01:43:14;;;;;;;19.10;14.47;;;;;19.80;101982.00;;;;2085002;28;20209;-49
2024/01/11 01:44:14;;;;;;;20.50;15.83;;;;;19.80;101979.00;;;;2084635;28;20212;-50
2024/01/11 01:45:15;;;;;;;21.70;14.87;;;;;19.80;101976.00;;;;2090989;28;20231;-50
2024/01/11 01:46:21;;;;;;;22.07;15.80;;;;;19.80;101962.00;;;;2084612;28;20209;-50
2024/01/11 01:47:21;;;;;;;19.27;15.73;;;;;19.70;101967.00;;;;2065732;28;20213;-50
2024/01/11 01:48:21;;;;;;;18.90;15.30;;;;;19.70;101970.00;;;;2079328;28;20228;-49
2024/01/11 01:49:22;;;;;;;22.23;15.00;;;;;19.70;101970.00;;;;2084569;28;20232;-50
2024/01/11 01:50:22;;;;;;;18.00;15.40;;;;;19.70;101972.00;;;;2075253;28;20253;-50
2024/01/11 01:51:25;;;;;;;20.67;15.50;;;;;19.70;101967.00;;;;2075545;28;20590;-50
2024/01/11 01:52:25;;;;;;;20.13;14.93;;;;;19.70;101967.00;;;;2065183;28;20221;-50
2024/01/11 01:53:25;;;;;;;22.83;17.10;;;;;19.70;101946.00;;;;2079580;28;20281;-49
2024/01/11 01:54:26;;;;;;;19.53;15.60;;;;;19.70;101968.00;;;;2075621;28;20317;-50
2024/01/11 01:55:26;;;;;;;18.43;13.90;;;;;19.70;101965.00;;;;2057053;28;20302;-50
2024/01/11 01:56:27;;;;;;;21.27;15.70;;;;;19.70;101966.00;;;;2070674;28;20221;-50
2024/01/11 01:57:27;;;;;;;20.90;15.60;;;;;19.70;101972.00;;;;2062585;28;20226;-50
2024/01/11 01:58:27;;;;;;;23.03;15.27;;;;;19.70;101967.00;;;;2059465;28;21083;-50
2024/01/11 01:59:27;;;;;;;19.60;15.10;;;;;19.70;101962.00;;;;2067788;28;20740;-50
2024/01/11 02:00:28;;;;;;;21.07;14.97;;;;;19.70;101967.00;;;;2074903;28;20943;-50
2024/01/11 02:01:28;;;;;;;18.80;14.60;;;;;19.70;101969.00;;;;2067699;28;20724;-50
2024/01/11 02:02:29;;;;;;;18.80;14.97;;;;;19.70;101952.00;;;;2069036;28;20267;-50
2024/01/11 02:03:29;;;;;;;19.87;14.83;;;;;19.70;101969.00;;;;2084498;28;20228;-50
2024/01/11 02:04:30;;;;;;;20.37;15.03;;;;;19.70;101959.00;;;;2075764;28;20748;-50
2024/01/11 02:05:30;;;;;;;22.03;15.47;;;;;19.70;101964.00;;;;2085169;28;20224;-50
2024/01/11 02:06:31;;;;;;;17.90;14.10;;;;;19.70;101963.00;;;;2085060;28;20263;-49
2024/01/11 02:07:32;;;;;;;18.85;14.23;;;;;19.70;101956.00;;;;2057935;28;20233;-50
2024/01/11 02:08:33;;;;;;;19.93;15.50;;;;;19.70;101964.00;;;;2072440;28;20976;-50
2024/01/11 02:09:34;;;;;;;21.25;14.38;;;;;19.70;101964.00;;;;2083053;28;20532;-51
2024/01/11 02:10:35;;;;;;;19.40;15.23;;;;;19.70;101966.00;;;;2085141;28;20213;-52
2024/01/11 02:11:35;;;;;;;18.45;14.38;;;;;19.60;101971.00;;;;2075429;28;20222;-51
2024/01/11 02:12:37;;;;;;;19.37;15.10;;;;;19.70;101969.00;;;;2054444;28;20222;-50
2024/01/11 02:13:37;;;;;;;18.80;14.32;;;;;19.70;101964.00;;;;2076039;28;20228;-50
2024/01/11 02:14:38;;;;;;;24.17;14.87;;;;;19.60;101978.00;;;;2084452;28;20708;-50
2024/01/11 02:15:38;;;;;;;19.47;15.60;;;;;19.60;101972.00;;;;2086450;28;21326;-50
2024/01/11 02:16:38;;;;;;;17.97;13.20;;;;;19.60;101976.00;;;;2085654;28;20216;-50
2024/01/11 02:17:40;;;;;;;19.50;14.80;;;;;19.60;101974.00;;;;2074945;28;20266;-50
2024/01/11 02:18:40;;;;;;;16.60;13.90;;;;;19.60;101979.00;;;;2088890;28;20244;-50
2024/01/11 02:19:40;;;;;;;20.13;14.33;;;;;19.60;101965.00;;;;2079492;28;20771;-49
2024/01/11 02:20:41;;;;;;;17.53;14.23;;;;;19.60;101951.00;;;;2074361;28;20222;-50
2024/01/11 02:21:42;;;;;;;18.67;14.30;;;;;19.60;101969.00;;;;2089082;28;20267;-50
2024/01/11 02:22:45;;;;;;;17.50;13.80;;;;;19.60;101962.00;;;;2080330;28;20224;-49
2024/01/11 02:24:04;;;;;;;18.70;14.02;;;;;19.60;101968.00;;;;2084022;28;20969;-49
2024/01/11 02:25:04;;;;;;;19.50;14.02;;;;;19.60;101967.00;;;;2075168;28;20669;-50
2024/01/11 02:26:04;;;;;;;18.87;15.50;;;;;19.60;101979.00;;;;2075851;28;20217;-49
2024/01/11 02:27:05;;;;;;;17.20;13.47;;;;;19.60;101979.00;;;;2085804;28;20307;-50
2024/01/11 02:28:05;;;;;;;18.97;14.90;;;;;19.60;101980.00;;;;2075287;28;20215;-52
2024/01/11 02:29:06;;;;;;;18.40;13.93;;;;;19.60;101983.00;;;;2084316;28;20689;-52
2024/01/11 02:30:06;;;;;;;17.97;13.83;;;;;19.60;101811.00;;;;2086241;28;20209;-51
2024/01/11 02:31:07;;;;;;;17.70;14.57;;;;;19.60;101970.00;;;;2086163;28;20220;-50
2024/01/11 02:32:08;;;;;;;17.17;13.97;;;;;19.60;101970.00;;;;2068578;28;20245;-50
2024/01/11 02:33:08;;;;;;;18.80;13.87;;;;;19.60;101968.00;;;;2051442;28;20573;-50
2024/01/11 02:34:08;;;;;;;20.73;14.37;;;;;19.60;101973.00;;;;2077705;28;20566;-50
2024/01/11 02:35:09;;;;;;;19.50;14.43;;;;;19.60;101806.00;;;;2058246;28;20219;-50
2024/01/11 02:36:09;;;;;;;16.90;13.17;;;;;19.60;101976.00;;;;2061704;28;20357;-50
2024/01/11 02:37:09;;;;;;;18.30;14.57;;;;;19.60;101975.00;;;;2065291;28;20210;-52
2024/01/11 02:38:10;;;;;;;21.10;15.13;;;;;19.60;101976.00;;;;2071881;28;20217;-49
2024/01/11 02:39:10;;;;;;;17.23;12.87;;;;;19.50;101983.00;;;;2085251;28;20212;-50
2024/01/11 02:40:10;;;;;;;17.00;12.77;;;;;19.60;101966.00;;;;2066906;28;20219;-50
2024/01/11 02:41:11;;;;;;;18.00;14.40;;;;;19.50;101972.00;;;;2061899;28;20222;-50
2024/01/11 02:42:12;;;;;;;18.60;14.30;;;;;19.60;101968.00;;;;2058169;28;20226;-50
2024/01/11 02:43:12;;;;;;;17.17;13.17;;;;;19.60;101975.00;;;;2086645;28;20308;-49
2024/01/11 02:44:12;;;;;;;18.13;13.90;;;;;19.60;101974.00;;;;2086344;28;20204;-49
2024/01/11 02:45:13;;;;;;;16.80;12.60;;;;;19.50;101969.00;;;;2086098;28;20235;-50
2024/01/11 02:46:15;;;;;;;18.67;13.30;;;;;19.50;101972.00;;;;2084135;28;20676;-50
2024/01/11 02:47:15;;;;;;;15.90;13.13;;;;;19.50;101973.00;;;;2075135;28;20210;-50
2024/01/11 02:48:15;;;;;;;18.83;13.83;;;;;19.50;101974.00;;;;2086847;28;20325;-50
2024/01/11 02:49:16;;;;;;;16.13;13.20;;;;;19.50;101971.00;;;;2086327;28;20609;-50
2024/01/11 02:50:16;;;;;;;17.27;13.90;;;;;19.40;101972.00;;;;2086399;28;20787;-50
2024/01/11 02:51:17;;;;;;;18.00;13.50;;;;;19.50;101969.00;;;;2086763;28;20565;-50
2024/01/11 02:52:17;;;;;;;17.50;13.60;;;;;19.50;101982.00;;;;2074117;28;20217;-50
2024/01/11 02:53:17;;;;;;;18.83;13.73;;;;;19.50;101974.00;;;;2086541;28;20216;-50
2024/01/11 02:54:18;;;;;;;21.47;14.00;;;;;19.50;101975.00;;;;2085896;28;20208;-50
2024/01/11 02:55:18;;;;;;;20.43;14.80;;;;;19.50;101952.00;;;;2086527;28;20409;-50
2024/01/11 02:56:18;;;;;;;18.23;14.07;;;;;19.50;101982.00;;;;2084691;28;20715;-50
2024/01/11 02:57:19;;;;;;;16.13;12.87;;;;;19.50;102035.00;;;;2076042;28;20220;-50
2024/01/11 02:58:19;;;;;;;19.00;12.50;;;;;19.40;101987.00;;;;2084511;28;20635;-50
2024/01/11 02:59:20;;;;;;;16.97;13.00;;;;;19.50;101982.00;;;;2085290;28;20283;-50
2024/01/11 03:00:20;;;;;;;17.07;12.70;;;;;19.50;101990.00;;;;2086587;28;20205;-50
2024/01/11 03:01:20;;;;;;;18.50;13.67;;;;;19.50;101982.00;;;;2074646;28;20241;-50
2024/01/11 03:02:21;;;;;;;17.27;13.63;;;;;19.40;101976.00;;;;2066478;28;20221;-50
2024/01/11 03:03:21;;;;;;;16.50;12.37;;;;;19.40;101977.00;;;;2077406;28;20209;-50
2024/01/11 03:04:21;;;;;;;16.80;13.07;;;;;19.40;101969.00;;;;2077061;28;20295;-50
2024/01/11 03:05:22;;;;;;;19.10;13.00;;;;;19.40;101972.00;;;;2083628;28;20262;-50
2024/01/11 03:06:22;;;;;;;17.07;13.27;;;;;19.40;101965.00;;;;2085687;28;20212;-50
2024/01/11 03:07:22;;;;;;;18.63;13.90;;;;;19.40;101983.00;;;;2075492;28;20251;-50
2024/01/11 03:08:23;;;;;;;18.43;14.07;;;;;19.40;101978.00;;;;2083405;28;20212;-49
2024/01/11 03:09:23;;;;;;;19.17;13.70;;;;;19.40;101976.00;;;;2085937;28;20219;-50
2024/01/11 03:10:23;;;;;;;16.93;13.40;;;;;19.40;101971.00;;;;2086514;28;20236;-50
2024/01/11 03:11:24;;;;;;;16.83;13.63;;;;;19.50;101970.00;;;;2084354;28;20209;-49
2024/01/11 03:12:26;;;;;;;17.43;13.20;;;;;19.40;101987.00;;;;2075056;28;20209;-49
2024/01/11 03:13:26;;;;;;;16.23;13.32;;;;;19.40;101976.00;;;;2085549;28;20213;-49
2024/01/11 03:14:26;;;;;;;19.03;14.00;;;;;19.40;101977.00;;;;2084342;28;20294;-50
2024/01/11 03:15:27;;;;;;;18.40;13.63;;;;;19.40;101980.00;;;;2083547;28;20208;-50
2024/01/11 03:16:27;;;;;;;16.90;13.13;;;;;19.40;101974.00;;;;2086573;28;20627;-50
2024/01/11 03:17:27;;;;;;;17.17;13.37;;;;;19.40;101972.00;;;;2074611;28;20902;-50
2024/01/11 03:18:29;;;;;;;18.13;13.00;;;;;19.40;101973.00;;;;2084080;28;20204;-49
2024/01/11 03:19:30;;;;;;;16.83;13.50;;;;;19.40;101968.00;;;;2089407;28;20750;-50
2024/01/11 03:20:30;;;;;;;16.70;12.80;;;;;19.40;101979.00;;;;2085250;28;20229;-50
2024/01/11 03:21:30;;;;;;;19.57;12.87;;;;;19.40;101978.00;;;;2086381;28;20227;-50
2024/01/11 03:22:31;;;;;;;16.80;13.27;;;;;19.40;101976.00;;;;2074412;28;20240;-50
2024/01/11 03:23:31;;;;;;;17.30;12.80;;;;;19.40;101981.00;;;;2085784;28;20231;-50
2024/01/11 03:24:31;;;;;;;17.40;12.93;;;;;19.40;101980.00;;;;2086214;28;20229;-50
2024/01/11 03:25:32;;;;;;;20.60;13.13;;;;;19.40;101996.00;;;;2085617;28;20311;-50
2024/01/11 03:26:32;;;;;;;17.07;13.93;;;;;19.40;101987.00;;;;2083876;28;20255;-50
2024/01/11 03:27:32;;;;;;;17.20;13.37;;;;;19.40;101986.00;;;;2075361;28;20221;-50
2024/01/11 03:28:33;;;;;;;16.37;13.20;;;;;19.40;101981.00;;;;2085979;28;20232;-50
2024/01/11 03:29:33;;;;;;;16.80;13.27;;;;;19.30;101983.00;;;;2085238;28;20231;-49
2024/01/11 03:30:33;;;;;;;17.27;13.33;;;;;19.40;101981.00;;;;2086321;28;20224;-50
2024/01/11 03:31:34;;;;;;;17.63;13.00;;;;;19.30;101974.00;;;;2086116;28;20615;-50
2024/01/11 03:32:34;;;;;;;16.17;12.47;;;;;19.40;101973.00;;;;2073806;28;20225;-50
2024/01/11 03:33:34;;;;;;;17.27;13.37;;;;;19.40;101983.00;;;;2084047;28;20231;-50
2024/01/11 03:34:35;;;;;;;16.77;12.27;;;;;19.40;101978.00;;;;2080421;28;20225;-50
2024/01/11 03:35:38;;;;;;;17.40;12.97;;;;;19.40;101980.00;;;;2081380;28;20225;-50
2024/01/11 03:36:39;;;;;;;15.60;12.95;;;;;19.40;101978.00;;;;2085704;28;20977;-50
2024/01/11 03:37:39;;;;;;;17.85;12.48;;;;;19.40;101981.00;;;;2075856;28;20217;-50
2024/01/11 03:38:40;;;;;;;17.57;12.33;;;;;19.40;101979.00;;;;2086014;28;20303;-49
2024/01/11 03:39:40;;;;;;;16.10;12.53;;;;;19.40;101980.00;;;;2085670;28;20221;-50
2024/01/11 03:40:40;;;;;;;16.20;13.70;;;;;19.40;101991.00;;;;2086307;28;20247;-50
2024/01/11 03:41:44;;;;;;;18.30;13.23;;;;;19.40;101987.00;;;;2085218;28;20253;-50
2024/01/11 03:42:45;;;;;;;16.23;13.15;;;;;19.40;101988.00;;;;2074456;28;20241;-50
2024/01/11 03:43:45;;;;;;;15.17;11.73;;;;;19.40;101987.00;;;;2081240;28;20217;-50
2024/01/11 03:44:45;;;;;;;17.20;13.17;;;;;19.40;101998.00;;;;2086026;28;20209;-50
2024/01/11 03:45:46;;;;;;;15.97;13.30;;;;;19.40;101986.00;;;;2085453;28;20291;-50
2024/01/11 03:46:46;;;;;;;17.77;12.77;;;;;19.40;101993.00;;;;2087679;28;20221;-50
2024/01/11 03:47:46;;;;;;;17.90;13.23;;;;;19.40;102029.00;;;;2075866;28;20700;-50
2024/01/11 03:48:47;;;;;;;16.97;13.00;;;;;19.40;101992.00;;;;2081089;28;20212;-50
2024/01/11 03:49:47;;;;;;;18.53;13.30;;;;;19.40;101996.00;;;;2086219;28;20735;-49
2024/01/11 03:50:47;;;;;;;15.20;12.00;;;;;19.40;101981.00;;;;2084725;28;20498;-50
2024/01/11 03:51:48;;;;;;;15.00;11.67;;;;;19.40;101991.00;;;;2084227;28;20628;-50
2024/01/11 03:52:48;;;;;;;15.40;11.97;;;;;19.40;101988.00;;;;2076040;28;20244;-50
2024/01/11 03:53:48;;;;;;;17.60;12.70;;;;;19.40;102005.00;;;;2086366;28;20284;-50
2024/01/11 03:54:49;;;;;;;16.73;12.80;;;;;19.40;101999.00;;;;2088504;28;20220;-50
2024/01/11 03:55:49;;;;;;;17.63;13.03;;;;;19.40;101996.00;;;;2085362;28;20209;-49
2024/01/11 03:56:50;;;;;;;16.60;12.83;;;;;19.40;102000.00;;;;2086136;28;20267;-49
2024/01/11 03:57:51;;;;;;;17.10;12.63;;;;;19.30;101998.00;;;;2073562;28;20718;-50
2024/01/11 03:58:51;;;;;;;17.17;12.70;;;;;19.30;102009.00;;;;2082780;28;20221;-50
2024/01/11 03:59:51;;;;;;;15.07;12.50;;;;;19.30;102004.00;;;;2079236;28;20617;-50
2024/01/11 04:00:52;;;;;;;17.67;13.33;;;;;19.40;102001.00;;;;2083514;28;20684;-49
2024/01/11 04:01:52;;;;;;;16.00;12.93;;;;;19.40;101998.00;;;;2085850;28;20217;-50
2024/01/11 04:02:53;;;;;;;18.27;12.60;;;;;19.30;101994.00;;;;2069231;28;20214;-49
2024/01/11 04:03:53;;;;;;;15.20;12.27;;;;;19.30;101992.00;;;;2088785;28;20764;-49
2024/01/11 04:04:54;;;;;;;17.80;12.20;;;;;19.40;102005.00;;;;2087287;28;20201;-50
2024/01/11 04:05:54;;;;;;;17.10;12.70;;;;;19.40;102006.00;;;;2085932;28;20228;-50
2024/01/11 04:06:54;;;;;;;16.10;11.80;;;;;19.30;102007.00;;;;2085781;28;20221;-49
2024/01/11 04:07:54;;;;;;;17.70;12.60;;;;;19.30;102009.00;;;;2074115;28;20689;-50
2024/01/11 04:08:55;;;;;;;17.83;12.67;;;;;19.40;102004.00;;;;2091221;28;20248;-49
2024/01/11 04:09:55;;;;;;;17.40;12.33;;;;;19.30;102004.00;;;;2090312;28;20236;-50
2024/01/11 04:10:55;;;;;;;16.47;12.70;;;;;19.40;102005.00;;;;2088113;28;20208;-50
2024/01/11 04:11:56;;;;;;;18.80;12.77;;;;;19.30;102004.00;;;;2083370;28;20307;-49
2024/01/11 04:12:56;;;;;;;17.30;12.50;;;;;19.40;102011.00;;;;2075357;28;20220;-49
2024/01/11 04:13:56;;;;;;;17.23;12.57;;;;;19.40;102002.00;;;;2085362;28;20216;-50
2024/01/11 04:14:57;;;;;;;18.57;13.30;;;;;19.40;102004.00;;;;2082284;28;20323;-49
2024/01/11 04:15:57;;;;;;;14.77;11.50;;;;;19.40;102011.00;;;;2085909;28;20255;-50
2024/01/11 04:16:57;;;;;;;15.60;11.73;;;;;19.40;102014.00;;;;2085176;28;20227;-49
2024/01/11 04:17:58;;;;;;;15.40;12.20;;;;;19.40;102014.00;;;;2075316;28;20213;-49
2024/01/11 04:18:59;;;;;;;15.30;12.50;;;;;19.40;102024.00;;;;2085146;28;20216;-50
2024/01/11 04:19:59;;;;;;;16.35;12.05;;;;;19.00;102020.00;;;;2085886;28;20213;-50
2024/01/11 04:21:00;;;;;;;17.00;12.97;;;;;19.40;102007.00;;;;2085737;28;20221;-49
2024/01/11 04:22:00;;;;;;;16.83;13.40;;;;;19.40;102008.00;;;;2074652;28;20249;-50
2024/01/11 04:23:00;;;;;;;18.53;13.23;;;;;19.30;102004.00;;;;2067038;28;20308;-49
2024/01/11 04:24:01;;;;;;;16.43;12.97;;;;;19.30;102009.00;;;;2084859;28;20212;-50
2024/01/11 04:25:01;;;;;;;16.70;13.00;;;;;19.40;102006.00;;;;2084358;28;20220;-50
2024/01/11 04:26:01;;;;;;;17.50;12.93;;;;;19.30;102005.00;;;;2084832;28;20278;-50
2024/01/11 04:27:02;;;;;;;19.80;13.13;;;;;19.30;102007.00;;;;2085753;28;20225;-49
2024/01/11 04:28:02;;;;;;;16.57;12.50;;;;;19.40;102012.00;;;;2074312;28;20217;-50
2024/01/11 04:29:03;;;;;;;17.27;12.83;;;;;19.40;102011.00;;;;2073854;28;20641;-50
2024/01/11 04:30:04;;;;;;;16.90;12.60;;;;;19.30;102012.00;;;;2082288;28;20308;-49
2024/01/11 04:31:04;;;;;;;15.93;12.97;;;;;19.30;102014.00;;;;2084991;28;20751;-50
2024/01/11 04:32:05;;;;;;;18.37;13.73;;;;;19.30;102017.00;;;;2084525;28;20485;-50
2024/01/11 04:33:05;;;;;;;16.13;13.35;;;;;19.30;102011.00;;;;2074736;28;20282;-49
2024/01/11 04:34:06;;;;;;;17.57;13.40;;;;;19.40;102020.00;;;;2085305;28;20273;-50
2024/01/11 04:35:06;;;;;;;15.80;12.60;;;;;19.40;102012.00;;;;2084475;28;20229;-50
2024/01/11 04:36:08;;;;;;;18.50;13.57;;;;;19.40;102011.00;;;;2081967;28;20232;-50
2024/01/11 04:37:08;;;;;;;17.08;13.85;;;;;19.30;102012.00;;;;2084889;28;20216;-50
2024/01/11 04:38:08;;;;;;;16.73;12.27;;;;;19.40;102017.00;;;;2074136;28;20227;-49
2024/01/11 04:39:09;;;;;;;15.67;12.17;;;;;19.40;102030.00;;;;2085230;28;20217;-49
2024/01/11 04:40:10;;;;;;;17.30;12.73;;;;;19.40;102012.00;;;;2084998;28;20244;-50
2024/01/11 04:41:11;;;;;;;16.23;11.80;;;;;19.30;102014.00;;;;2085912;28;20373;-50
2024/01/11 04:42:11;;;;;;;18.03;13.07;;;;;19.40;102015.00;;;;2079088;28;20290;-50
2024/01/11 04:43:11;;;;;;;16.40;12.63;;;;;19.40;102011.00;;;;2080174;28;21175;-50
2024/01/11 04:44:12;;;;;;;16.63;12.57;;;;;19.30;102015.00;;;;2085140;28;20317;-50
2024/01/11 04:45:12;;;;;;;15.00;12.70;;;;;19.30;102019.00;;;;2091698;28;20977;-50
2024/01/11 04:46:22;;;;;;;15.90;11.80;;;;;19.30;102013.00;;;;2085154;28;20633;-50
2024/01/11 04:47:22;;;;;;;17.63;12.88;;;;;19.30;102020.00;;;;2064300;28;20283;-49
2024/01/11 04:48:23;;;;;;;16.17;12.63;;;;;19.30;102030.00;;;;2085152;28;20634;-49
2024/01/11 04:49:23;;;;;;;17.20;13.60;;;;;19.30;102026.00;;;;2084836;28;20570;-49
2024/01/11 04:50:23;;;;;;;15.40;12.27;;;;;19.30;102027.00;;;;2085682;28;20562;-50
2024/01/11 04:51:24;;;;;;;17.30;12.70;;;;;19.30;102025.00;;;;2085313;28;20265;-49
2024/01/11 04:52:24;;;;;;;18.23;13.47;;;;;19.30;102037.00;;;;2070214;28;20590;-50